sensor_id;sensor_type;location;lat;lon;timestamp;P1;P2;P0
43479;PMS5003;29067;35.492;-97.520;2023-05-18T00:00:26;12;12;
43479;PMS5003;29067;35.492;-97.520;2023-05-18T00:02:54;12;11;
43479;PMS5003;29067;35.492;-97.520;2023-05-18T00:05:23;12;12;
43479;PMS5003;29067;35.492;-97.520;2023-05-18T00:07:51;16;16;
43479;PMS5003;29067;35.492;-97.520;2023-05-18T00:10:19;13;12;
43479;PMS5003;29067;35.492;-97.520;2023-05-18T00:12:47;13;12;
43479;PMS5003;29067;35.492;-97.520;2023-05-18T00:15:15;17;17;
43479;PMS5003;29067;35.492;-97.520;2023-05-18T00:17:42;15;15;
43479;PMS5003;29067;35.492;-97.520;2023-05-18T00:20:11;15;14;
43479;PMS5003;29067;35.492;-97.520;2023-05-18T00:22:39;14;13;
43479;PMS5003;29067;35.492;-97.520;2023-05-18T00:25:07;13;13;
43479;PMS5003;29067;35.492;-97.520;2023-05-18T00:27:35;11;11;
43479;PMS5003;29067;35.492;-97.520;2023-05-18T00:30:04;10;10;
43479;PMS5003;29067;35.492;-97.520;2023-05-18T00:32:33;12;11;
43479;PMS5003;29067;35.492;-97.520;2023-05-18T00:35:06;11;11;
43479;PMS5003;29067;35.492;-97.520;2023-05-18T00:37:34;14;14;
43479;PMS5003;29067;35.492;-97.520;2023-05-18T00:40:02;13;13;
43479;PMS5003;29067;35.492;-97.520;2023-05-18T00:42:30;11;11;
43479;PMS5003;29067;35.492;-97.520;2023-05-18T00:44:58;11;11;
43479;PMS5003;29067;35.492;-97.520;2023-05-18T00:47:28;8;8;
43479;PMS5003;29067;35.492;-97.520;2023-05-18T00:49:55;12;12;
43479;PMS5003;29067;35.492;-97.520;2023-05-18T00:52:23;9;9;
43479;PMS5003;29067;35.492;-97.520;2023-05-18T00:54:54;8;8;
43479;PMS5003;29067;35.492;-97.520;2023-05-18T00:57:24;11;11;
43479;PMS5003;29067;35.492;-97.520;2023-05-18T00:59:58;9;8;
43479;PMS5003;29067;35.492;-97.520;2023-05-18T01:02:27;9;9;
43479;PMS5003;29067;35.492;-97.520;2023-05-18T01:04:55;9;9;
43479;PMS5003;29067;35.492;-97.520;2023-05-18T01:07:23;10;9;
43479;PMS5003;29067;35.492;-97.520;2023-05-18T01:09:52;8;8;
43479;PMS5003;29067;35.492;-97.520;2023-05-18T01:12:28;9;9;
43479;PMS5003;29067;35.492;-97.520;2023-05-18T01:15:00;9;9;
43479;PMS5003;29067;35.492;-97.520;2023-05-18T01:17:34;15;13;
43479;PMS5003;29067;35.492;-97.520;2023-05-18T01:20:14;10;10;
43479;PMS5003;29067;35.492;-97.520;2023-05-18T01:22:50;9;9;
43479;PMS5003;29067;35.492;-97.520;2023-05-18T01:26:11;7;7;
43479;PMS5003;29067;35.492;-97.520;2023-05-18T01:28:42;10;9;
43479;PMS5003;29067;35.492;-97.520;2023-05-18T01:31:13;12;12;
43479;PMS5003;29067;35.492;-97.520;2023-05-18T01:33:41;10;10;
43479;PMS5003;29067;35.492;-97.520;2023-05-18T01:36:10;8;8;
43479;PMS5003;29067;35.492;-97.520;2023-05-18T01:38:38;12;11;
43479;PMS5003;29067;35.492;-97.520;2023-05-18T01:41:10;10;9;
43479;PMS5003;29067;35.492;-97.520;2023-05-18T01:43:47;7;7;
43479;PMS5003;29067;35.492;-97.520;2023-05-18T01:46:23;9;9;
43479;PMS5003;29067;35.492;-97.520;2023-05-18T01:48:59;9;8;
43479;PMS5003;29067;35.492;-97.520;2023-05-18T01:51:32;8;8;
43479;PMS5003;29067;35.492;-97.520;2023-05-18T01:54:07;9;8;
43479;PMS5003;29067;35.492;-97.520;2023-05-18T01:56:37;8;7;
43479;PMS5003;29067;35.492;-97.520;2023-05-18T01:59:13;9;9;
43479;PMS5003;29067;35.492;-97.520;2023-05-18T02:01:43;9;8;
43479;PMS5003;29067;35.492;-97.520;2023-05-18T02:04:16;8;8;
43479;PMS5003;29067;35.492;-97.520;2023-05-18T02:06:45;9;9;
43479;PMS5003;29067;35.492;-97.520;2023-05-18T02:09:13;7;7;
43479;PMS5003;29067;35.492;-97.520;2023-05-18T02:11:40;7;7;
43479;PMS5003;29067;35.492;-97.520;2023-05-18T02:14:13;7;6;
43479;PMS5003;29067;35.492;-97.520;2023-05-18T02:16:41;8;8;
43479;PMS5003;29067;35.492;-97.520;2023-05-18T02:19:08;7;7;
43479;PMS5003;29067;35.492;-97.520;2023-05-18T02:21:42;13;10;
43479;PMS5003;29067;35.492;-97.520;2023-05-18T02:24:11;7;6;
43479;PMS5003;29067;35.492;-97.520;2023-05-18T02:26:39;7;7;
43479;PMS5003;29067;35.492;-97.520;2023-05-18T02:29:07;9;8;
43479;PMS5003;29067;35.492;-97.520;2023-05-18T02:31:40;6;6;
43479;PMS5003;29067;35.492;-97.520;2023-05-18T02:34:08;7;6;
43479;PMS5003;29067;35.492;-97.520;2023-05-18T02:36:36;8;8;
43479;PMS5003;29067;35.492;-97.520;2023-05-18T02:39:04;7;7;
43479;PMS5003;29067;35.492;-97.520;2023-05-18T02:41:37;8;8;
43479;PMS5003;29067;35.492;-97.520;2023-05-18T02:44:05;7;7;
43479;PMS5003;29067;35.492;-97.520;2023-05-18T02:46:33;7;7;
43479;PMS5003;29067;35.492;-97.520;2023-05-18T02:49:00;8;8;
43479;PMS5003;29067;35.492;-97.520;2023-05-18T02:51:29;8;8;
43479;PMS5003;29067;35.492;-97.520;2023-05-18T02:54:01;8;8;
43479;PMS5003;29067;35.492;-97.520;2023-05-18T02:56:30;9;9;
43479;PMS5003;29067;35.492;-97.520;2023-05-18T02:58:58;7;7;
43479;PMS5003;29067;35.492;-97.520;2023-05-18T03:01:26;8;8;
43479;PMS5003;29067;35.492;-97.520;2023-05-18T03:03:54;9;7;
43479;PMS5003;29067;35.492;-97.520;2023-05-18T03:06:22;7;7;
43479;PMS5003;29067;35.492;-97.520;2023-05-18T03:08:54;8;6;
43479;PMS5003;29067;35.492;-97.520;2023-05-18T03:11:23;7;7;
43479;PMS5003;29067;35.492;-97.520;2023-05-18T03:13:51;8;7;
43479;PMS5003;29067;35.492;-97.520;2023-05-18T03:16:25;11;8;
43479;PMS5003;29067;35.492;-97.520;2023-05-18T03:18:57;9;8;
43479;PMS5003;29067;35.492;-97.520;2023-05-18T03:21:25;8;8;
43479;PMS5003;29067;35.492;-97.520;2023-05-18T03:23:58;10;8;
43479;PMS5003;29067;35.492;-97.520;2023-05-18T03:26:26;7;7;
43479;PMS5003;29067;35.492;-97.520;2023-05-18T03:28:54;8;8;
43479;PMS5003;29067;35.492;-97.520;2023-05-18T03:31:22;6;6;
43479;PMS5003;29067;35.492;-97.520;2023-05-18T03:33:57;7;7;
43479;PMS5003;29067;35.492;-97.520;2023-05-18T03:36:24;6;6;
43479;PMS5003;29067;35.492;-97.520;2023-05-18T03:38:53;6;6;
43479;PMS5003;29067;35.492;-97.520;2023-05-18T03:41:21;7;7;
43479;PMS5003;29067;35.492;-97.520;2023-05-18T03:43:50;8;8;
43479;PMS5003;29067;35.492;-97.520;2023-05-18T03:46:19;8;8;
43479;PMS5003;29067;35.492;-97.520;2023-05-18T03:48:48;9;9;
43479;PMS5003;29067;35.492;-97.520;2023-05-18T03:51:16;8;8;
43479;PMS5003;29067;35.492;-97.520;2023-05-18T03:53:44;9;9;
43479;PMS5003;29067;35.492;-97.520;2023-05-18T03:56:12;9;9;
43479;PMS5003;29067;35.492;-97.520;2023-05-18T03:58:40;9;8;
43479;PMS5003;29067;35.492;-97.520;2023-05-18T04:01:17;8;8;
43479;PMS5003;29067;35.492;-97.520;2023-05-18T04:03:45;7;7;
43479;PMS5003;29067;35.492;-97.520;2023-05-18T04:06:13;10;10;
43479;PMS5003;29067;35.492;-97.520;2023-05-18T04:08:41;11;11;
43479;PMS5003;29067;35.492;-97.520;2023-05-18T04:11:11;12;11;
43479;PMS5003;29067;35.492;-97.520;2023-05-18T04:13:40;8;8;
43479;PMS5003;29067;35.492;-97.520;2023-05-18T04:16:09;11;9;
43479;PMS5003;29067;35.492;-97.520;2023-05-18T04:18:36;8;8;
43479;PMS5003;29067;35.492;-97.520;2023-05-18T04:21:10;9;9;
43479;PMS5003;29067;35.492;-97.520;2023-05-18T04:23:38;8;8;
43479;PMS5003;29067;35.492;-97.520;2023-05-18T04:26:12;7;7;
43479;PMS5003;29067;35.492;-97.520;2023-05-18T04:28:46;9;9;
43479;PMS5003;29067;35.492;-97.520;2023-05-18T04:31:14;9;8;
43479;PMS5003;29067;35.492;-97.520;2023-05-18T04:33:42;10;9;
43479;PMS5003;29067;35.492;-97.520;2023-05-18T04:36:09;10;9;
43479;PMS5003;29067;35.492;-97.520;2023-05-18T04:38:37;9;9;
43479;PMS5003;29067;35.492;-97.520;2023-05-18T04:41:06;9;9;
43479;PMS5003;29067;35.492;-97.520;2023-05-18T04:43:35;10;9;
43479;PMS5003;29067;35.492;-97.520;2023-05-18T04:46:03;10;9;
43479;PMS5003;29067;35.492;-97.520;2023-05-18T04:48:36;9;9;
43479;PMS5003;29067;35.492;-97.520;2023-05-18T04:51:09;13;10;
43479;PMS5003;29067;35.492;-97.520;2023-05-18T04:53:36;9;9;
43479;PMS5003;29067;35.492;-97.520;2023-05-18T04:56:05;9;9;
43479;PMS5003;29067;35.492;-97.520;2023-05-18T04:58:33;8;8;
43479;PMS5003;29067;35.492;-97.520;2023-05-18T05:01:02;11;11;
43479;PMS5003;29067;35.492;-97.520;2023-05-18T05:03:30;11;10;
43479;PMS5003;29067;35.492;-97.520;2023-05-18T05:06:03;9;9;
43479;PMS5003;29067;35.492;-97.520;2023-05-18T05:08:32;10;10;
43479;PMS5003;29067;35.492;-97.520;2023-05-18T05:11:05;9;9;
43479;PMS5003;29067;35.492;-97.520;2023-05-18T05:13:39;11;11;
43479;PMS5003;29067;35.492;-97.520;2023-05-18T05:16:08;9;9;
43479;PMS5003;29067;35.492;-97.520;2023-05-18T05:18:36;8;8;
43479;PMS5003;29067;35.492;-97.520;2023-05-18T05:21:04;10;10;
43479;PMS5003;29067;35.492;-97.520;2023-05-18T05:23:31;10;10;
43479;PMS5003;29067;35.492;-97.520;2023-05-18T05:25:59;11;10;
43479;PMS5003;29067;35.492;-97.520;2023-05-18T05:28:27;8;8;
43479;PMS5003;29067;35.492;-97.520;2023-05-18T05:31:01;9;9;
43479;PMS5003;29067;35.492;-97.520;2023-05-18T05:33:34;10;10;
43479;PMS5003;29067;35.492;-97.520;2023-05-18T05:36:02;8;8;
43479;PMS5003;29067;35.492;-97.520;2023-05-18T05:38:31;9;9;
43479;PMS5003;29067;35.492;-97.520;2023-05-18T05:40:59;12;11;
43479;PMS5003;29067;35.492;-97.520;2023-05-18T05:43:28;9;9;
43479;PMS5003;29067;35.492;-97.520;2023-05-18T05:45:56;10;10;
43479;PMS5003;29067;35.492;-97.520;2023-05-18T05:48:24;8;8;
43479;PMS5003;29067;35.492;-97.520;2023-05-18T05:50:51;9;9;
43479;PMS5003;29067;35.492;-97.520;2023-05-18T05:53:19;11;11;
43479;PMS5003;29067;35.492;-97.520;2023-05-18T05:55:47;7;7;
43479;PMS5003;29067;35.492;-97.520;2023-05-18T05:58:14;9;8;
43479;PMS5003;29067;35.492;-97.520;2023-05-18T06:00:42;8;8;
43479;PMS5003;29067;35.492;-97.520;2023-05-18T06:03:10;8;8;
43479;PMS5003;29067;35.492;-97.520;2023-05-18T06:05:38;8;8;
43479;PMS5003;29067;35.492;-97.520;2023-05-18T06:08:07;10;9;
43479;PMS5003;29067;35.492;-97.520;2023-05-18T06:10:35;10;9;
43479;PMS5003;29067;35.492;-97.520;2023-05-18T06:13:03;7;7;
43479;PMS5003;29067;35.492;-97.520;2023-05-18T06:15:32;13;10;
43479;PMS5003;29067;35.492;-97.520;2023-05-18T06:18:00;9;8;
43479;PMS5003;29067;35.492;-97.520;2023-05-18T06:20:30;10;9;
43479;PMS5003;29067;35.492;-97.520;2023-05-18T06:22:58;11;9;
43479;PMS5003;29067;35.492;-97.520;2023-05-18T06:25:26;10;10;
43479;PMS5003;29067;35.492;-97.520;2023-05-18T06:28:00;10;10;
43479;PMS5003;29067;35.492;-97.520;2023-05-18T06:30:28;9;9;
43479;PMS5003;29067;35.492;-97.520;2023-05-18T06:32:56;9;9;
43479;PMS5003;29067;35.492;-97.520;2023-05-18T06:35:26;12;12;
43479;PMS5003;29067;35.492;-97.520;2023-05-18T06:37:54;12;11;
43479;PMS5003;29067;35.492;-97.520;2023-05-18T06:40:22;8;8;
43479;PMS5003;29067;35.492;-97.520;2023-05-18T06:42:55;10;10;
43479;PMS5003;29067;35.492;-97.520;2023-05-18T06:45:25;7;7;
43479;PMS5003;29067;35.492;-97.520;2023-05-18T06:47:57;8;8;
43479;PMS5003;29067;35.492;-97.520;2023-05-18T06:50:26;8;8;
43479;PMS5003;29067;35.492;-97.520;2023-05-18T06:52:54;8;8;
43479;PMS5003;29067;35.492;-97.520;2023-05-18T06:55:22;9;9;
43479;PMS5003;29067;35.492;-97.520;2023-05-18T06:57:51;12;11;
43479;PMS5003;29067;35.492;-97.520;2023-05-18T07:00:18;10;10;
43479;PMS5003;29067;35.492;-97.520;2023-05-18T07:02:52;12;10;
43479;PMS5003;29067;35.492;-97.520;2023-05-18T07:05:30;10;10;
43479;PMS5003;29067;35.492;-97.520;2023-05-18T07:08:03;9;9;
43479;PMS5003;29067;35.492;-97.520;2023-05-18T07:10:31;10;10;
43479;PMS5003;29067;35.492;-97.520;2023-05-18T07:12:59;10;10;
43479;PMS5003;29067;35.492;-97.520;2023-05-18T07:15:32;10;10;
43479;PMS5003;29067;35.492;-97.520;2023-05-18T07:18:06;10;10;
43479;PMS5003;29067;35.492;-97.520;2023-05-18T07:20:34;10;9;
43479;PMS5003;29067;35.492;-97.520;2023-05-18T07:23:02;9;9;
43479;PMS5003;29067;35.492;-97.520;2023-05-18T07:25:40;8;8;
43479;PMS5003;29067;35.492;-97.520;2023-05-18T07:28:13;10;10;
43479;PMS5003;29067;35.492;-97.520;2023-05-18T07:30:45;13;10;
43479;PMS5003;29067;35.492;-97.520;2023-05-18T07:33:13;12;11;
43479;PMS5003;29067;35.492;-97.520;2023-05-18T07:35:46;11;10;
43479;PMS5003;29067;35.492;-97.520;2023-05-18T07:38:13;8;8;
43479;PMS5003;29067;35.492;-97.520;2023-05-18T07:40:41;9;9;
43479;PMS5003;29067;35.492;-97.520;2023-05-18T07:43:08;8;8;
43479;PMS5003;29067;35.492;-97.520;2023-05-18T07:45:36;9;9;
43479;PMS5003;29067;35.492;-97.520;2023-05-18T07:48:04;9;9;
43479;PMS5003;29067;35.492;-97.520;2023-05-18T07:50:32;9;8;
43479;PMS5003;29067;35.492;-97.520;2023-05-18T07:53:00;9;8;
43479;PMS5003;29067;35.492;-97.520;2023-05-18T07:55:28;8;7;
43479;PMS5003;29067;35.492;-97.520;2023-05-18T07:57:58;8;7;
43479;PMS5003;29067;35.492;-97.520;2023-05-18T08:00:26;11;11;
43479;PMS5003;29067;35.492;-97.520;2023-05-18T08:02:57;7;7;
43479;PMS5003;29067;35.492;-97.520;2023-05-18T08:05:25;9;8;
43479;PMS5003;29067;35.492;-97.520;2023-05-18T08:07:53;10;9;
43479;PMS5003;29067;35.492;-97.520;2023-05-18T08:10:26;8;8;
43479;PMS5003;29067;35.492;-97.520;2023-05-18T08:12:54;8;8;
43479;PMS5003;29067;35.492;-97.520;2023-05-18T08:15:22;9;9;
43479;PMS5003;29067;35.492;-97.520;2023-05-18T08:17:51;9;9;
43479;PMS5003;29067;35.492;-97.520;2023-05-18T08:20:25;8;8;
43479;PMS5003;29067;35.492;-97.520;2023-05-18T08:22:53;9;8;
43479;PMS5003;29067;35.492;-97.520;2023-05-18T08:25:22;8;7;
43479;PMS5003;29067;35.492;-97.520;2023-05-18T08:27:51;8;8;
43479;PMS5003;29067;35.492;-97.520;2023-05-18T08:30:19;9;7;
43479;PMS5003;29067;35.492;-97.520;2023-05-18T08:32:58;6;5;
43479;PMS5003;29067;35.492;-97.520;2023-05-18T08:35:26;7;7;
43479;PMS5003;29067;35.492;-97.520;2023-05-18T08:37:58;7;7;
43479;PMS5003;29067;35.492;-97.520;2023-05-18T08:40:30;8;8;
43479;PMS5003;29067;35.492;-97.520;2023-05-18T08:43:10;7;7;
43479;PMS5003;29067;35.492;-97.520;2023-05-18T08:45:46;8;7;
43479;PMS5003;29067;35.492;-97.520;2023-05-18T08:48:18;7;6;
43479;PMS5003;29067;35.492;-97.520;2023-05-18T08:50:56;8;7;
43479;PMS5003;29067;35.492;-97.520;2023-05-18T08:53:32;5;5;
43479;PMS5003;29067;35.492;-97.520;2023-05-18T08:56:02;5;5;
43479;PMS5003;29067;35.492;-97.520;2023-05-18T08:58:43;6;5;
43479;PMS5003;29067;35.492;-97.520;2023-05-18T09:01:15;6;6;
43479;PMS5003;29067;35.492;-97.520;2023-05-18T09:03:44;7;7;
43479;PMS5003;29067;35.492;-97.520;2023-05-18T09:06:13;7;5;
43479;PMS5003;29067;35.492;-97.520;2023-05-18T09:08:42;5;5;
43479;PMS5003;29067;35.492;-97.520;2023-05-18T09:11:12;6;5;
43479;PMS5003;29067;35.492;-97.520;2023-05-18T09:13:45;6;6;
43479;PMS5003;29067;35.492;-97.520;2023-05-18T09:16:15;5;5;
43479;PMS5003;29067;35.492;-97.520;2023-05-18T09:18:44;7;7;
43479;PMS5003;29067;35.492;-97.520;2023-05-18T09:21:23;5;5;
43479;PMS5003;29067;35.492;-97.520;2023-05-18T09:23:51;5;5;
43479;PMS5003;29067;35.492;-97.520;2023-05-18T09:26:19;6;5;
43479;PMS5003;29067;35.492;-97.520;2023-05-18T09:28:50;4;3;
43479;PMS5003;29067;35.492;-97.520;2023-05-18T09:31:20;6;5;
43479;PMS5003;29067;35.492;-97.520;2023-05-18T09:33:48;4;4;
43479;PMS5003;29067;35.492;-97.520;2023-05-18T09:36:16;6;6;
43479;PMS5003;29067;35.492;-97.520;2023-05-18T09:39:02;6;5;
43479;PMS5003;29067;35.492;-97.520;2023-05-18T09:41:36;4;4;
43479;PMS5003;29067;35.492;-97.520;2023-05-18T09:44:04;6;6;
43479;PMS5003;29067;35.492;-97.520;2023-05-18T09:46:33;3;3;
43479;PMS5003;29067;35.492;-97.520;2023-05-18T09:49:06;6;6;
43479;PMS5003;29067;35.492;-97.520;2023-05-18T09:51:47;7;7;
43479;PMS5003;29067;35.492;-97.520;2023-05-18T09:54:16;5;5;
43479;PMS5003;29067;35.492;-97.520;2023-05-18T09:56:43;6;5;
43479;PMS5003;29067;35.492;-97.520;2023-05-18T09:59:13;5;5;
43479;PMS5003;29067;35.492;-97.520;2023-05-18T10:01:54;5;5;
43479;PMS5003;29067;35.492;-97.520;2023-05-18T10:04:22;5;4;
43479;PMS5003;29067;35.492;-97.520;2023-05-18T10:07:09;6;5;
43479;PMS5003;29067;35.492;-97.520;2023-05-18T10:09:38;5;5;
43479;PMS5003;29067;35.492;-97.520;2023-05-18T10:12:10;5;5;
43479;PMS5003;29067;35.492;-97.520;2023-05-18T10:14:39;5;5;
43479;PMS5003;29067;35.492;-97.520;2023-05-18T10:17:13;5;5;
43479;PMS5003;29067;35.492;-97.520;2023-05-18T10:19:42;6;6;
43479;PMS5003;29067;35.492;-97.520;2023-05-18T10:22:11;6;6;
43479;PMS5003;29067;35.492;-97.520;2023-05-18T10:24:49;7;7;
43479;PMS5003;29067;35.492;-97.520;2023-05-18T10:27:35;4;4;
43479;PMS5003;29067;35.492;-97.520;2023-05-18T10:30:09;6;6;
43479;PMS5003;29067;35.492;-97.520;2023-05-18T10:32:38;6;6;
43479;PMS5003;29067;35.492;-97.520;2023-05-18T10:35:22;4;4;
43479;PMS5003;29067;35.492;-97.520;2023-05-18T10:37:50;7;7;
43479;PMS5003;29067;35.492;-97.520;2023-05-18T10:40:21;5;5;
43479;PMS5003;29067;35.492;-97.520;2023-05-18T10:42:50;7;7;
43479;PMS5003;29067;35.492;-97.520;2023-05-18T10:45:24;6;6;
43479;PMS5003;29067;35.492;-97.520;2023-05-18T10:47:53;5;5;
43479;PMS5003;29067;35.492;-97.520;2023-05-18T10:50:22;6;6;
43479;PMS5003;29067;35.492;-97.520;2023-05-18T10:52:52;6;6;
43479;PMS5003;29067;35.492;-97.520;2023-05-18T10:55:22;5;5;
43479;PMS5003;29067;35.492;-97.520;2023-05-18T10:57:55;9;8;
43479;PMS5003;29067;35.492;-97.520;2023-05-18T11:03:00;6;6;
43479;PMS5003;29067;35.492;-97.520;2023-05-18T11:05:29;6;6;
43479;PMS5003;29067;35.492;-97.520;2023-05-18T11:07:59;7;7;
43479;PMS5003;29067;35.492;-97.520;2023-05-18T11:10:32;8;8;
43479;PMS5003;29067;35.492;-97.520;2023-05-18T11:13:01;8;7;
43479;PMS5003;29067;35.492;-97.520;2023-05-18T11:16:02;8;7;
43479;PMS5003;29067;35.492;-97.520;2023-05-18T11:18:34;7;7;
43479;PMS5003;29067;35.492;-97.520;2023-05-18T11:21:17;7;7;
43479;PMS5003;29067;35.492;-97.520;2023-05-18T11:24:28;9;8;
43479;PMS5003;29067;35.492;-97.520;2023-05-18T11:26:58;7;7;
43479;PMS5003;29067;35.492;-97.520;2023-05-18T11:29:29;11;11;
43479;PMS5003;29067;35.492;-97.520;2023-05-18T11:32:00;13;10;
43479;PMS5003;29067;35.492;-97.520;2023-05-18T11:34:38;12;11;
43479;PMS5003;29067;35.492;-97.520;2023-05-18T11:37:08;11;10;
43479;PMS5003;29067;35.492;-97.520;2023-05-18T11:39:36;14;13;
43479;PMS5003;29067;35.492;-97.520;2023-05-18T11:42:05;12;11;
43479;PMS5003;29067;35.492;-97.520;2023-05-18T11:44:36;10;10;
43479;PMS5003;29067;35.492;-97.520;2023-05-18T11:47:06;12;11;
43479;PMS5003;29067;35.492;-97.520;2023-05-18T11:49:36;13;11;
43479;PMS5003;29067;35.492;-97.520;2023-05-18T11:52:12;13;12;
43479;PMS5003;29067;35.492;-97.520;2023-05-18T11:54:45;12;11;
43479;PMS5003;29067;35.492;-97.520;2023-05-18T11:57:16;14;13;
43479;PMS5003;29067;35.492;-97.520;2023-05-18T11:59:45;11;10;
43479;PMS5003;29067;35.492;-97.520;2023-05-18T12:02:19;12;12;
43479;PMS5003;29067;35.492;-97.520;2023-05-18T12:04:51;13;12;
43479;PMS5003;29067;35.492;-97.520;2023-05-18T12:07:21;13;12;
43479;PMS5003;29067;35.492;-97.520;2023-05-18T12:09:49;14;14;
43479;PMS5003;29067;35.492;-97.520;2023-05-18T12:12:18;15;14;
43479;PMS5003;29067;35.492;-97.520;2023-05-18T12:14:51;14;13;
43479;PMS5003;29067;35.492;-97.520;2023-05-18T12:17:20;13;13;
43479;PMS5003;29067;35.492;-97.520;2023-05-18T12:19:49;16;15;
43479;PMS5003;29067;35.492;-97.520;2023-05-18T12:22:18;12;12;
43479;PMS5003;29067;35.492;-97.520;2023-05-18T12:24:46;11;11;
43479;PMS5003;29067;35.492;-97.520;2023-05-18T12:27:17;12;12;
43479;PMS5003;29067;35.492;-97.520;2023-05-18T12:29:46;15;14;
43479;PMS5003;29067;35.492;-97.520;2023-05-18T12:32:16;14;13;
43479;PMS5003;29067;35.492;-97.520;2023-05-18T12:34:45;13;13;
43479;PMS5003;29067;35.492;-97.520;2023-05-18T12:37:13;14;12;
43479;PMS5003;29067;35.492;-97.520;2023-05-18T12:39:41;13;11;
43479;PMS5003;29067;35.492;-97.520;2023-05-18T12:42:09;10;10;
43479;PMS5003;29067;35.492;-97.520;2023-05-18T12:44:40;12;12;
43479;PMS5003;29067;35.492;-97.520;2023-05-18T12:47:09;13;12;
43479;PMS5003;29067;35.492;-97.520;2023-05-18T12:49:39;12;12;
43479;PMS5003;29067;35.492;-97.520;2023-05-18T12:52:09;12;11;
43479;PMS5003;29067;35.492;-97.520;2023-05-18T12:54:55;12;11;
43479;PMS5003;29067;35.492;-97.520;2023-05-18T12:57:24;11;11;
43479;PMS5003;29067;35.492;-97.520;2023-05-18T12:59:52;10;10;
43479;PMS5003;29067;35.492;-97.520;2023-05-18T13:02:26;9;9;
43479;PMS5003;29067;35.492;-97.520;2023-05-18T13:05:03;10;9;
43479;PMS5003;29067;35.492;-97.520;2023-05-18T13:07:34;10;10;
43479;PMS5003;29067;35.492;-97.520;2023-05-18T13:10:05;10;9;
43479;PMS5003;29067;35.492;-97.520;2023-05-18T13:12:36;10;10;
43479;PMS5003;29067;35.492;-97.520;2023-05-18T13:15:09;11;10;
43479;PMS5003;29067;35.492;-97.520;2023-05-18T13:17:46;11;10;
43479;PMS5003;29067;35.492;-97.520;2023-05-18T13:20:20;10;9;
43479;PMS5003;29067;35.492;-97.520;2023-05-18T13:22:50;13;12;
43479;PMS5003;29067;35.492;-97.520;2023-05-18T13:25:18;14;13;
43479;PMS5003;29067;35.492;-97.520;2023-05-18T13:27:46;13;11;
43479;PMS5003;29067;35.492;-97.520;2023-05-18T13:30:19;12;11;
43479;PMS5003;29067;35.492;-97.520;2023-05-18T13:32:48;14;12;
43479;PMS5003;29067;35.492;-97.520;2023-05-18T13:35:16;12;11;
43479;PMS5003;29067;35.492;-97.520;2023-05-18T13:37:45;11;10;
43479;PMS5003;29067;35.492;-97.520;2023-05-18T13:40:14;11;11;
43479;PMS5003;29067;35.492;-97.520;2023-05-18T13:42:43;11;11;
43479;PMS5003;29067;35.492;-97.520;2023-05-18T13:45:17;10;9;
43479;PMS5003;29067;35.492;-97.520;2023-05-18T13:47:46;13;10;
43479;PMS5003;29067;35.492;-97.520;2023-05-18T13:50:15;11;11;
43479;PMS5003;29067;35.492;-97.520;2023-05-18T13:52:48;9;9;
43479;PMS5003;29067;35.492;-97.520;2023-05-18T13:55:16;11;9;
43479;PMS5003;29067;35.492;-97.520;2023-05-18T13:57:44;12;11;
43479;PMS5003;29067;35.492;-97.520;2023-05-18T14:00:13;11;9;
43479;PMS5003;29067;35.492;-97.520;2023-05-18T14:02:46;10;9;
43479;PMS5003;29067;35.492;-97.520;2023-05-18T14:05:15;14;11;
43479;PMS5003;29067;35.492;-97.520;2023-05-18T14:07:42;11;10;
43479;PMS5003;29067;35.492;-97.520;2023-05-18T14:10:10;9;9;
43479;PMS5003;29067;35.492;-97.520;2023-05-18T14:12:39;10;9;
43479;PMS5003;29067;35.492;-97.520;2023-05-18T14:15:07;8;8;
43479;PMS5003;29067;35.492;-97.520;2023-05-18T14:17:36;8;8;
43479;PMS5003;29067;35.492;-97.520;2023-05-18T14:20:05;12;11;
43479;PMS5003;29067;35.492;-97.520;2023-05-18T14:22:35;9;9;
43479;PMS5003;29067;35.492;-97.520;2023-05-18T14:25:03;9;8;
43479;PMS5003;29067;35.492;-97.520;2023-05-18T14:27:32;10;9;
43479;PMS5003;29067;35.492;-97.520;2023-05-18T14:29:59;7;7;
43479;PMS5003;29067;35.492;-97.520;2023-05-18T14:32:28;10;10;
43479;PMS5003;29067;35.492;-97.520;2023-05-18T14:34:55;9;8;
43479;PMS5003;29067;35.492;-97.520;2023-05-18T14:37:23;13;12;
43479;PMS5003;29067;35.492;-97.520;2023-05-18T14:39:51;10;10;
43479;PMS5003;29067;35.492;-97.520;2023-05-18T14:42:20;10;10;
43479;PMS5003;29067;35.492;-97.520;2023-05-18T14:44:47;11;11;
43479;PMS5003;29067;35.492;-97.520;2023-05-18T14:47:15;12;12;
43479;PMS5003;29067;35.492;-97.520;2023-05-18T14:49:43;13;11;
43479;PMS5003;29067;35.492;-97.520;2023-05-18T14:52:10;12;10;
43479;PMS5003;29067;35.492;-97.520;2023-05-18T14:54:38;11;11;
43479;PMS5003;29067;35.492;-97.520;2023-05-18T14:57:06;13;11;
43479;PMS5003;29067;35.492;-97.520;2023-05-18T14:59:34;11;10;
43479;PMS5003;29067;35.492;-97.520;2023-05-18T15:02:07;11;10;
43479;PMS5003;29067;35.492;-97.520;2023-05-18T15:04:35;13;12;
43479;PMS5003;29067;35.492;-97.520;2023-05-18T15:07:03;12;12;
43479;PMS5003;29067;35.492;-97.520;2023-05-18T15:09:31;9;9;
43479;PMS5003;29067;35.492;-97.520;2023-05-18T15:12:00;12;12;
43479;PMS5003;29067;35.492;-97.520;2023-05-18T15:14:33;11;10;
43479;PMS5003;29067;35.492;-97.520;2023-05-18T15:17:01;12;10;
43479;PMS5003;29067;35.492;-97.520;2023-05-18T15:19:28;9;9;
43479;PMS5003;29067;35.492;-97.520;2023-05-18T15:21:56;9;9;
43479;PMS5003;29067;35.492;-97.520;2023-05-18T15:24:29;10;10;
43479;PMS5003;29067;35.492;-97.520;2023-05-18T15:26:58;9;9;
43479;PMS5003;29067;35.492;-97.520;2023-05-18T15:29:31;10;10;
43479;PMS5003;29067;35.492;-97.520;2023-05-18T15:32:00;9;9;
43479;PMS5003;29067;35.492;-97.520;2023-05-18T15:34:27;11;11;
43479;PMS5003;29067;35.492;-97.520;2023-05-18T15:36:55;12;10;
43479;PMS5003;29067;35.492;-97.520;2023-05-18T15:39:23;10;10;
43479;PMS5003;29067;35.492;-97.520;2023-05-18T15:41:52;12;12;
43479;PMS5003;29067;35.492;-97.520;2023-05-18T15:44:20;12;12;
43479;PMS5003;29067;35.492;-97.520;2023-05-18T15:46:53;11;11;
43479;PMS5003;29067;35.492;-97.520;2023-05-18T15:49:21;9;9;
43479;PMS5003;29067;35.492;-97.520;2023-05-18T15:51:49;11;11;
43479;PMS5003;29067;35.492;-97.520;2023-05-18T15:54:22;15;14;
43479;PMS5003;29067;35.492;-97.520;2023-05-18T15:56:50;11;11;
43479;PMS5003;29067;35.492;-97.520;2023-05-18T15:59:17;10;10;
43479;PMS5003;29067;35.492;-97.520;2023-05-18T16:01:45;13;10;
43479;PMS5003;29067;35.492;-97.520;2023-05-18T16:04:13;10;10;
43479;PMS5003;29067;35.492;-97.520;2023-05-18T16:06:46;9;9;
43479;PMS5003;29067;35.492;-97.520;2023-05-18T16:09:13;13;13;
43479;PMS5003;29067;35.492;-97.520;2023-05-18T16:11:41;11;11;
43479;PMS5003;29067;35.492;-97.520;2023-05-18T16:14:09;10;10;
43479;PMS5003;29067;35.492;-97.520;2023-05-18T16:16:37;13;12;
43479;PMS5003;29067;35.492;-97.520;2023-05-18T16:19:04;11;11;
43479;PMS5003;29067;35.492;-97.520;2023-05-18T16:21:32;10;9;
43479;PMS5003;29067;35.492;-97.520;2023-05-18T16:24:00;13;9;
43479;PMS5003;29067;35.492;-97.520;2023-05-18T16:26:29;9;9;